createdAt,value
2022-08-05T00:00:21.164Z,1.60
2022-08-05T00:02:52.288Z,1.33
2022-08-05T00:06:03.051Z,2.60
2022-08-05T00:08:19.994Z,1.60
2022-08-05T00:11:03.319Z,1.58
2022-08-05T00:13:39.037Z,1.45
2022-08-05T00:16:12.484Z,1.33
2022-08-05T00:18:44.443Z,1.67
2022-08-05T00:21:14.766Z,1.40
2022-08-05T00:23:53.673Z,1.80
2022-08-05T00:26:34.899Z,2.03
2022-08-05T00:29:04.085Z,1.20
2022-08-05T00:31:54.359Z,1.35
2022-08-05T00:34:54.018Z,1.20
2022-08-05T00:37:23.481Z,2.10
2022-08-05T00:39:58.850Z,1.88
2022-08-05T00:42:36.715Z,1.77
2022-08-05T00:45:11.810Z,1.88
2022-08-05T00:47:57.169Z,2.00
2022-08-05T00:50:32.149Z,1.83
2022-08-05T00:53:01.608Z,1.90
2022-08-05T00:55:34.003Z,1.95
2022-08-05T00:58:11.734Z,1.40
2022-08-05T01:00:42.369Z,1.33
2022-08-05T01:03:22.552Z,1.73
2022-08-05T01:05:56.058Z,1.40
2022-08-05T01:08:42.156Z,1.35
2022-08-05T01:11:36.935Z,1.85
2022-08-05T01:14:28.746Z,1.77
2022-08-05T01:17:13.505Z,1.40
2022-08-05T01:20:03.561Z,1.50
2022-08-05T01:23:13.591Z,1.30
2022-08-05T01:26:26.322Z,1.52
2022-08-05T01:29:23.169Z,1.65
2022-08-05T01:31:56.324Z,1.40
2022-08-05T01:34:36.673Z,1.40
2022-08-05T01:37:25.049Z,1.75
2022-08-05T01:39:58.796Z,1.25
2022-08-05T01:42:31.133Z,1.02
2022-08-05T01:45:03.190Z,1.20
2022-08-05T01:47:39.700Z,1.00
2022-08-05T01:50:20.378Z,0.82
2022-08-05T01:53:03.398Z,1.00
2022-08-05T01:55:36.740Z,1.45
2022-08-05T01:58:15.484Z,1.10
2022-08-05T02:00:50.673Z,0.85
2022-08-05T02:03:31.948Z,1.23
2022-08-05T02:06:37.952Z,0.70
2022-08-05T02:08:59.011Z,0.70
2022-08-05T02:11:52.813Z,0.90
2022-08-05T02:14:32.004Z,1.17
2022-08-05T02:17:29.921Z,0.93
2022-08-05T02:20:13.132Z,1.02
2022-08-05T02:22:47.513Z,0.88
2022-08-05T02:25:27.028Z,1.20
2022-08-05T02:28:08.790Z,0.85
2022-08-05T02:30:54.258Z,1.42
2022-08-05T02:33:35.964Z,0.60
2022-08-05T02:36:13.265Z,0.60
2022-08-05T02:38:52.891Z,0.77
2022-08-05T02:41:28.732Z,0.60
2022-08-05T02:44:12.174Z,0.60
2022-08-05T02:46:58.430Z,0.70
2022-08-05T02:49:41.768Z,0.68
2022-08-05T02:52:29.463Z,0.45
2022-08-05T02:55:05.598Z,0.80
2022-08-05T02:58:11.988Z,1.00
2022-08-05T03:00:31.830Z,0.52
2022-08-05T03:03:02.544Z,0.70
2022-08-05T03:06:54.786Z,0.70
2022-08-05T03:08:32.159Z,1.60
2022-08-05T03:11:54.714Z,0.73
2022-08-05T03:14:03.137Z,0.68
2022-08-05T03:16:33.359Z,0.60
2022-08-05T03:19:17.278Z,0.65
2022-08-05T03:21:55.551Z,0.73
2022-08-05T03:24:30.215Z,0.60
2022-08-05T03:27:01.010Z,0.60
2022-08-05T03:29:45.313Z,0.70
2022-08-05T03:32:21.008Z,0.70
2022-08-05T03:35:01.061Z,0.80
2022-08-05T03:37:41.740Z,0.95
2022-08-05T03:40:31.246Z,0.57
2022-08-05T03:43:15.927Z,0.80
2022-08-05T03:45:57.585Z,0.60
2022-08-05T03:48:35.659Z,0.80
2022-08-05T03:52:38.148Z,0.80
2022-08-05T03:55:52.876Z,1.10
2022-08-05T03:57:41.660Z,0.45
2022-08-05T04:02:58.969Z,0.65
2022-08-05T04:05:36.872Z,1.02
2022-08-05T04:08:29.928Z,1.02
2022-08-05T04:11:02.956Z,1.10
2022-08-05T04:13:50.983Z,1.15
2022-08-05T04:16:25.320Z,1.08
2022-08-05T04:19:01.837Z,0.68
2022-08-05T04:22:10.401Z,1.00
2022-08-05T04:24:22.442Z,1.35
2022-08-05T04:26:52.440Z,1.05
2022-08-05T04:29:21.588Z,1.10
2022-08-05T04:31:52.342Z,0.60
2022-08-05T04:34:32.820Z,0.60
2022-08-05T04:37:04.015Z,0.75
2022-08-05T04:39:35.212Z,0.80
2022-08-05T04:42:05.011Z,0.70
2022-08-05T04:44:34.227Z,0.40
2022-08-05T04:47:08.860Z,1.00
2022-08-05T04:50:03.023Z,0.70
2022-08-05T04:52:33.332Z,0.52
2022-08-05T04:55:14.463Z,0.73
2022-08-05T04:57:51.482Z,0.50
2022-08-05T05:00:23.537Z,0.50
2022-08-05T05:02:53.817Z,0.52
2022-08-05T05:05:28.466Z,0.38
2022-08-05T05:08:02.387Z,0.80
2022-08-05T05:10:33.952Z,0.60
2022-08-05T05:13:04.056Z,0.95
2022-08-05T05:15:57.488Z,0.73
2022-08-05T05:18:28.729Z,0.82
2022-08-05T05:21:05.542Z,0.50
2022-08-05T05:23:39.144Z,0.63
2022-08-05T05:26:28.048Z,0.70
2022-08-05T05:29:02.553Z,0.68
2022-08-05T05:34:02.753Z,0.68
2022-08-05T05:36:33.619Z,1.10
2022-08-05T05:39:10.806Z,0.80
2022-08-05T05:41:42.017Z,0.50
2022-08-05T05:44:36.984Z,0.60
2022-08-05T05:47:03.980Z,0.50
2022-08-05T05:49:34.614Z,0.60
2022-08-05T05:52:05.927Z,0.60
2022-08-05T05:54:50.420Z,0.40
2022-08-05T05:57:21.640Z,0.50
2022-08-05T05:59:51.308Z,0.50
2022-08-05T06:13:40.661Z,1.42
2022-08-05T06:16:28.742Z,1.10
2022-08-05T06:19:05.923Z,1.13
2022-08-05T06:21:42.303Z,1.20
2022-08-05T06:24:22.500Z,0.90
2022-08-05T08:21:02.819Z,0.80
2022-08-05T08:24:01.329Z,0.60
2022-08-05T08:26:29.426Z,0.90
2022-08-05T08:29:21.768Z,0.68
2022-08-05T08:31:50.578Z,0.70
2022-08-05T08:34:30.323Z,0.82
2022-08-05T08:37:05.192Z,0.90
2022-08-05T08:39:37.556Z,0.73
2022-08-05T08:42:34.205Z,0.60
2022-08-05T08:45:20.786Z,0.82
2022-08-05T08:48:07.050Z,0.65
2022-08-05T08:51:03.133Z,0.70
2022-08-05T08:53:45.098Z,0.38
2022-08-05T08:56:15.224Z,0.57
2022-08-05T08:58:48.022Z,1.00
2022-08-05T09:01:20.759Z,0.98
2022-08-05T09:03:57.353Z,0.90
2022-08-05T09:06:30.525Z,0.80
2022-08-05T09:09:04.585Z,0.70
2022-08-05T09:11:52.076Z,0.55
2022-08-05T09:14:58.530Z,0.70
2022-08-05T09:17:42.247Z,0.50
2022-08-05T09:20:08.522Z,0.35
2022-08-05T09:23:18.608Z,0.40
2022-08-05T09:26:03.193Z,2.03
2022-08-05T09:28:35.418Z,1.13
2022-08-05T09:31:22.808Z,1.00
2022-08-05T09:34:04.201Z,1.25
2022-08-05T09:36:59.140Z,0.90
2022-08-05T09:39:44.801Z,1.60
2022-08-05T09:42:24.364Z,1.40
2022-08-05T09:45:17.376Z,0.70
2022-08-05T09:47:56.174Z,0.68
2022-08-05T09:50:44.545Z,1.10
2022-08-05T09:53:26.149Z,1.13
2022-08-05T09:56:13.066Z,0.93
2022-08-05T09:58:43.136Z,0.88
2022-08-05T10:01:32.004Z,1.00
2022-08-05T10:04:10.614Z,1.00
2022-08-05T10:06:54.890Z,0.80
2022-08-05T10:09:30.293Z,0.73
2022-08-05T10:12:18.483Z,3.50
2022-08-05T10:15:20.383Z,17.23
2022-08-05T10:18:17.678Z,11.43
2022-08-05T10:20:51.516Z,4.55
2022-08-05T10:23:55.259Z,21.58
2022-08-05T10:26:18.364Z,15.15
2022-08-05T10:28:50.022Z,6.38
2022-08-05T10:32:54.653Z,1.92
2022-08-05T10:34:11.309Z,5.88
2022-08-05T10:36:43.602Z,6.68
2022-08-05T10:39:25.139Z,3.67
2022-08-05T10:42:32.349Z,1.13
2022-08-05T10:45:21.426Z,4.30
2022-08-05T10:48:29.155Z,2.80
2022-08-05T10:51:06.361Z,3.90
2022-08-05T10:54:05.803Z,5.05
2022-08-05T10:56:58.251Z,3.17
2022-08-05T11:00:03.102Z,2.85
2022-08-05T11:02:35.280Z,3.83
2022-08-05T11:05:12.171Z,4.73
2022-08-05T11:08:37.374Z,3.17
2022-08-05T11:11:52.417Z,3.78
2022-08-05T11:17:58.917Z,3.28
2022-08-05T11:20:44.629Z,2.42
2022-08-05T11:24:05.661Z,2.33
2022-08-05T11:26:49.411Z,2.67
2022-08-05T11:29:42.466Z,2.67
2022-08-05T11:32:32.048Z,1.98
2022-08-05T11:35:01.646Z,1.17
2022-08-05T11:38:30.622Z,1.75
2022-08-05T11:41:35.309Z,1.70
2022-08-05T11:44:05.812Z,2.00
2022-08-05T11:46:58.134Z,1.95
2022-08-05T11:49:28.782Z,1.85
2022-08-05T11:52:08.735Z,2.10
2022-08-05T11:54:43.390Z,2.13
2022-08-05T11:57:26.022Z,2.05
2022-08-05T11:59:57.461Z,1.80
2022-08-05T12:02:36.219Z,1.70
2022-08-05T12:05:18.507Z,2.05
2022-08-05T12:08:09.100Z,2.10
2022-08-05T12:10:45.187Z,1.92
2022-08-05T12:13:28.118Z,2.05
2022-08-05T12:16:14.600Z,1.75
2022-08-05T12:18:53.145Z,2.63
2022-08-05T12:24:07.590Z,2.20
